Time;durP1;ratioP1;P1;durP2;ratioP2;P2;SDS_P1;SDS_P2;PMS_P1;PMS_P2;Temp;Humidity;BMP_temperature;BMP_pressure;BME280_temperature;BME280_humidity;BME280_pressure;Samples;Min_cycle;Max_cycle;Signal;HPM_P1;HPM_P2
2021/05/28 00:00:34;;;;;;;10.25;9.25;;;;;;;;;;5093592;28;20737;-82
2021/05/28 00:03:00;;;;;;;10.05;9.05;;;;;;;;;;5111860;28;20432;-81
2021/05/28 00:05:26;;;;;;;10.05;9.05;;;;;;;;;;5093669;28;20381;-80
2021/05/28 00:07:52;;;;;;;9.63;8.77;;;;;;;;;;5093713;28;20469;-82
2021/05/28 00:10:18;;;;;;;10.15;9.15;;;;;;;;;;5111915;28;20366;-81
2021/05/28 00:12:44;;;;;;;10.77;9.10;;;;;;;;;;5111892;28;20363;-83
2021/05/28 00:15:11;;;;;;;10.00;9.07;;;;;;;;;;5111500;28;20358;-80
2021/05/28 00:17:37;;;;;;;10.57;9.57;;;;;;;;;;5111771;28;20441;-82
2021/05/28 00:20:04;;;;;;;12.02;9.70;;;;;;;;;;5111548;28;20780;-81
2021/05/28 00:22:30;;;;;;;10.98;9.98;;;;;;;;;;5111134;28;20367;-82
2021/05/28 00:24:56;;;;;;;10.38;9.38;;;;;;;;;;5111459;28;20382;-81
2021/05/28 00:27:23;;;;;;;11.10;10.00;;;;;;;;;;5111261;28;20423;-80
2021/05/28 00:29:49;;;;;;;11.27;10.18;;;;;;;;;;5093286;28;20498;-82
2021/05/28 00:32:15;;;;;;;10.38;9.40;;;;;;;;;;5111118;28;20454;-81
2021/05/28 00:34:41;;;;;;;10.45;9.45;;;;;;;;;;5111352;28;20852;-82
2021/05/28 00:37:07;;;;;;;10.55;9.55;;;;;;;;;;5092820;28;20710;-82
2021/05/28 00:39:33;;;;;;;10.45;9.45;;;;;;;;;;5111748;28;20421;-80
2021/05/28 00:41:59;;;;;;;9.85;8.88;;;;;;;;;;5092713;28;20469;-82
2021/05/28 00:44:27;;;;;;;11.30;9.68;;;;;;;;;;5111122;28;20371;-81
2021/05/28 00:46:53;;;;;;;10.60;9.60;;;;;;;;;;5111284;28;20399;-82
2021/05/28 00:49:19;;;;;;;11.32;9.05;;;;;;;;;;5110980;28;20409;-82
2021/05/28 00:51:45;;;;;;;9.98;9.02;;;;;;;;;;5111137;28;20366;-82
2021/05/28 00:54:11;;;;;;;10.55;8.93;;;;;;;;;;5110792;28;20366;-82
2021/05/28 00:56:40;;;;;;;10.13;8.77;;;;;;;;;;5110834;28;20481;-80
2021/05/28 00:59:06;;;;;;;9.80;8.80;;;;;;;;;;5092539;28;20385;-80
2021/05/28 01:01:33;;;;;;;9.23;8.20;;;;;;;;;;5110734;28;20374;-83
2021/05/28 01:03:59;;;;;;;9.70;8.80;;;;;;;;;;5110928;28;20454;-80
2021/05/28 01:06:26;;;;;;;8.63;7.72;;;;;;;;;;5110753;28;20454;-80
2021/05/28 01:08:52;;;;;;;8.65;7.85;;;;;;;;;;5110990;28;20551;-80
2021/05/28 01:11:18;;;;;;;8.95;7.70;;;;;;;;;;5110050;28;20931;-83
2021/05/28 01:13:44;;;;;;;7.82;6.88;;;;;;;;;;5110788;28;20355;-80
2021/05/28 01:16:10;;;;;;;7.80;7.07;;;;;;;;;;5110625;28;20406;-80
2021/05/28 01:18:36;;;;;;;7.35;6.68;;;;;;;;;;5110714;28;20374;-81
2021/05/28 01:21:02;;;;;;;8.85;6.95;;;;;;;;;;5110590;28;20440;-80
2021/05/28 01:23:28;;;;;;;7.00;6.30;;;;;;;;;;5092165;28;20367;-81
2021/05/28 01:25:54;;;;;;;8.10;6.40;;;;;;;;;;5110242;28;20717;-82
2021/05/28 01:28:20;;;;;;;7.27;6.63;;;;;;;;;;5110406;28;20938;-80
2021/05/28 01:30:46;;;;;;;8.50;6.70;;;;;;;;;;5110402;28;20378;-81
2021/05/28 01:33:12;;;;;;;8.38;7.00;;;;;;;;;;5110520;28;20875;-82
2021/05/28 01:35:38;;;;;;;8.63;6.75;;;;;;;;;;5110338;28;20447;-80
2021/05/28 01:38:05;;;;;;;8.07;6.65;;;;;;;;;;5110094;28;20359;-82
2021/05/28 01:40:31;;;;;;;6.53;5.50;;;;;;;;;;5091619;28;20795;-82
2021/05/28 01:42:57;;;;;;;6.30;5.70;;;;;;;;;;5091838;28;20429;-80
2021/05/28 01:45:23;;;;;;;7.23;5.73;;;;;;;;;;5110044;28;20370;-80
2021/05/28 01:47:49;;;;;;;6.10;5.50;;;;;;;;;;5109976;28;20375;-81
2021/05/28 01:50:16;;;;;;;6.70;5.43;;;;;;;;;;5109865;28;20374;-80
2021/05/28 01:52:42;;;;;;;5.65;4.90;;;;;;;;;;5109912;28;20407;-81
2021/05/28 01:55:09;;;;;;;6.88;5.53;;;;;;;;;;5091346;28;20753;-82
2021/05/28 01:57:35;;;;;;;6.07;5.20;;;;;;;;;;5109726;28;20878;-82
2021/05/28 02:00:01;;;;;;;5.47;4.80;;;;;;;;;;5091383;28;20463;-82
2021/05/28 02:02:27;;;;;;;6.20;4.40;;;;;;;;;;5091244;28;20390;-79
2021/05/28 02:04:53;;;;;;;6.05;4.63;;;;;;;;;;5109636;28;20381;-81
2021/05/28 02:07:19;;;;;;;6.38;4.50;;;;;;;;;;5109638;28;20491;-80
2021/05/28 02:09:45;;;;;;;7.53;4.32;;;;;;;;;;5109413;28;20367;-82
2021/05/28 02:12:11;;;;;;;5.00;4.45;;;;;;;;;;5109773;28;20840;-82
2021/05/28 02:14:37;;;;;;;6.07;4.55;;;;;;;;;;5109453;28;20421;-81
2021/05/28 02:17:03;;;;;;;5.35;3.97;;;;;;;;;;5109196;28;20907;-81
2021/05/28 02:19:29;;;;;;;5.60;4.35;;;;;;;;;;5109344;28;20458;-81
2021/05/28 02:21:55;;;;;;;4.82;4.18;;;;;;;;;;5091260;28;20458;-83
2021/05/28 02:24:22;;;;;;;5.00;4.45;;;;;;;;;;5109295;28;21217;-82
2021/05/28 02:26:50;;;;;;;4.80;4.00;;;;;;;;;;5109544;28;20359;-81
2021/05/28 02:29:16;;;;;;;4.32;3.30;;;;;;;;;;5109241;28;20461;-81
2021/05/28 02:31:42;;;;;;;4.18;3.65;;;;;;;;;;5109338;28;20378;-81
2021/05/28 02:34:09;;;;;;;5.07;3.65;;;;;;;;;;5109162;28;20355;-80
2021/05/28 02:36:35;;;;;;;4.93;3.40;;;;;;;;;;5109055;28;20799;-81
2021/05/28 02:39:01;;;;;;;4.40;3.97;;;;;;;;;;5109019;28;20769;-81
2021/05/28 02:41:27;;;;;;;5.90;3.40;;;;;;;;;;5109041;28;20362;-83
2021/05/28 02:43:53;;;;;;;5.05;3.90;;;;;;;;;;5109272;28;20872;-80
2021/05/28 02:46:19;;;;;;;6.70;4.35;;;;;;;;;;5091031;28;20379;-83
2021/05/28 02:48:45;;;;;;;7.43;4.40;;;;;;;;;;5108934;28;20378;-83
2021/05/28 02:51:11;;;;;;;5.80;4.60;;;;;;;;;;5109060;28;20442;-82
2021/05/28 02:53:37;;;;;;;7.32;5.00;;;;;;;;;;5108862;28;20371;-81
2021/05/28 02:56:04;;;;;;;6.45;4.93;;;;;;;;;;5108974;28;20759;-83
2021/05/28 02:58:30;;;;;;;5.13;4.63;;;;;;;;;;5109433;28;20371;-81
2021/05/28 03:00:56;;;;;;;7.30;4.95;;;;;;;;;;5109080;28;20698;-80
2021/05/28 03:03:22;;;;;;;7.53;4.15;;;;;;;;;;5108950;28;20393;-82
2021/05/28 03:05:50;;;;;;;7.20;4.90;;;;;;;;;;5090808;28;20372;-81
2021/05/28 03:08:16;;;;;;;6.20;4.40;;;;;;;;;;5108769;28;20379;-81
2021/05/28 03:10:42;;;;;;;6.47;4.70;;;;;;;;;;5090556;28;20383;-81
2021/05/28 03:13:08;;;;;;;6.63;4.87;;;;;;;;;;5108491;28;20749;-81
2021/05/28 03:15:34;;;;;;;4.97;4.47;;;;;;;;;;5108826;28;20371;-81
2021/05/28 03:18:00;;;;;;;6.97;4.60;;;;;;;;;;5093560;28;20395;-83
2021/05/28 03:20:34;;;;;;;5.85;4.40;;;;;;;;;;5112623;28;20374;-81
2021/05/28 03:23:00;;;;;;;7.50;4.80;;;;;;;;;;5112716;28;20428;-80
2021/05/28 03:25:26;;;;;;;5.55;4.40;;;;;;;;;;5112956;28;20385;-81
2021/05/28 03:27:53;;;;;;;6.88;4.38;;;;;;;;;;5094424;28;20868;-80
2021/05/28 03:30:20;;;;;;;6.03;4.63;;;;;;;;;;5112558;28;20377;-80
2021/05/28 03:32:46;;;;;;;6.63;4.57;;;;;;;;;;5094205;28;20436;-81
2021/05/28 03:35:13;;;;;;;8.67;4.60;;;;;;;;;;5112083;28;20798;-80
2021/05/28 03:37:42;;;;;;;5.80;4.97;;;;;;;;;;5094268;28;20487;-82
2021/05/28 03:40:09;;;;;;;6.25;4.75;;;;;;;;;;5112200;28;20375;-82
2021/05/28 03:42:35;;;;;;;5.72;4.53;;;;;;;;;;5112552;28;20724;-80
2021/05/28 03:45:01;;;;;;;5.07;4.57;;;;;;;;;;5112214;28;20374;-82
2021/05/28 03:47:27;;;;;;;7.05;4.93;;;;;;;;;;5112550;28;20409;-81
2021/05/28 03:49:53;;;;;;;5.40;4.45;;;;;;;;;;5112520;28;20371;-82
2021/05/28 03:52:19;;;;;;;6.32;5.00;;;;;;;;;;5112365;28;20855;-82
2021/05/28 03:54:45;;;;;;;5.85;4.88;;;;;;;;;;5112572;28;20363;-82
2021/05/28 03:57:11;;;;;;;5.75;5.03;;;;;;;;;;5112069;28;20394;-81
2021/05/28 03:59:37;;;;;;;6.53;4.90;;;;;;;;;;5112011;28;20359;-83
2021/05/28 04:02:03;;;;;;;8.27;5.55;;;;;;;;;;5111580;28;20362;-81
2021/05/28 04:04:31;;;;;;;5.95;5.45;;;;;;;;;;5112102;28;20373;-81
2021/05/28 04:06:58;;;;;;;6.38;5.22;;;;;;;;;;5111870;28;20401;-82
2021/05/28 04:09:24;;;;;;;8.50;5.70;;;;;;;;;;5093621;28;20371;-79
2021/05/28 04:11:51;;;;;;;6.35;5.75;;;;;;;;;;5093610;28;20366;-81
2021/05/28 04:14:17;;;;;;;7.10;5.57;;;;;;;;;;5093444;28;20379;-81
2021/05/28 04:16:43;;;;;;;6.37;5.13;;;;;;;;;;5111712;28;20410;-82
2021/05/28 04:19:09;;;;;;;6.13;5.30;;;;;;;;;;5111502;28;20737;-80
2021/05/28 04:21:35;;;;;;;7.68;5.63;;;;;;;;;;5093377;28;20367;-81
2021/05/28 04:24:01;;;;;;;6.82;5.97;;;;;;;;;;5111963;28;20370;-81
2021/05/28 04:26:27;;;;;;;8.68;6.63;;;;;;;;;;5111691;28;20456;-82
2021/05/28 04:28:53;;;;;;;10.93;7.60;;;;;;;;;;5110457;28;20782;-80
2021/05/28 04:31:19;;;;;;;7.28;6.57;;;;;;;;;;5111254;28;20367;-83
2021/05/28 04:33:45;;;;;;;8.85;7.28;;;;;;;;;;5111441;28;20374;-82
2021/05/28 04:36:11;;;;;;;7.93;6.88;;;;;;;;;;5111269;28;21318;-81
2021/05/28 04:38:38;;;;;;;8.27;7.40;;;;;;;;;;5111948;28;20720;-83
2021/05/28 04:41:04;;;;;;;8.10;7.00;;;;;;;;;;5110933;28;20359;-81
2021/05/28 04:43:30;;;;;;;7.32;6.00;;;;;;;;;;5092717;28;20375;-83
2021/05/28 04:45:56;;;;;;;6.40;5.78;;;;;;;;;;5093175;28;20390;-81
2021/05/28 04:48:22;;;;;;;7.50;6.60;;;;;;;;;;5111580;28;20677;-82
2021/05/28 04:50:48;;;;;;;6.70;5.95;;;;;;;;;;5111298;28;20421;-84
2021/05/28 04:53:14;;;;;;;7.43;6.10;;;;;;;;;;5092499;28;20467;-83
2021/05/28 04:55:40;;;;;;;8.93;7.00;;;;;;;;;;5111427;28;20371;-83
2021/05/28 04:58:06;;;;;;;7.60;6.13;;;;;;;;;;5110867;28;20406;-81
2021/05/28 05:00:32;;;;;;;7.47;6.40;;;;;;;;;;5092491;28;20363;-83
2021/05/28 05:02:58;;;;;;;8.18;6.10;;;;;;;;;;5111154;28;20398;-83
2021/05/28 05:05:26;;;;;;;6.63;5.93;;;;;;;;;;5111014;28;20371;-82
2021/05/28 05:07:52;;;;;;;7.35;6.60;;;;;;;;;;5092373;28;20717;-82
2021/05/28 05:10:18;;;;;;;8.00;6.40;;;;;;;;;;5110803;28;20359;-84
2021/05/28 05:12:44;;;;;;;9.48;6.25;;;;;;;;;;5110677;28;20366;-83
2021/05/28 05:15:11;;;;;;;6.78;5.93;;;;;;;;;;5110704;28;21164;-85
2021/05/28 05:17:37;;;;;;;6.97;6.00;;;;;;;;;;5110619;28;20503;-82
2021/05/28 05:20:03;;;;;;;8.48;6.40;;;;;;;;;;5092129;28;20440;-81
2021/05/28 05:22:29;;;;;;;6.73;5.80;;;;;;;;;;5110726;28;20527;-90
2021/05/28 05:24:55;;;;;;;7.33;6.23;;;;;;;;;;5100889;27;20372;-84
2021/05/28 05:27:21;;;;;;;7.10;5.93;;;;;;;;;;5089293;28;20788;-84
2021/05/28 05:29:47;;;;;;;10.27;6.50;;;;;;;;;;5071517;28;20392;-86
2021/05/28 05:32:15;;;;;;;9.50;5.50;;;;;;;;;;5089717;28;20373;-84
2021/05/28 05:34:41;;;;;;;6.05;5.45;;;;;;;;;;5089959;28;20372;-86
2021/05/28 05:37:07;;;;;;;10.93;5.05;;;;;;;;;;5071880;28;20404;-85
2021/05/28 05:39:33;;;;;;;6.85;5.22;;;;;;;;;;5090258;28;20928;-84
2021/05/28 05:42:03;;;;;;;5.72;4.70;;;;;;;;;;5090876;28;20462;-85
2021/05/28 05:44:31;;;;;;;5.47;4.80;;;;;;;;;;5120299;27;20451;-84
2021/05/28 05:46:57;;;;;;;5.65;4.45;;;;;;;;;;5128557;27;20773;-86
2021/05/28 05:49:23;;;;;;;6.18;4.90;;;;;;;;;;5129454;27;20364;-83
2021/05/28 05:51:51;;;;;;;6.13;4.57;;;;;;;;;;5108004;27;20431;-87
2021/05/28 05:54:17;;;;;;;6.10;4.70;;;;;;;;;;5106564;28;20448;-83
2021/05/28 05:56:45;;;;;;;6.35;4.22;;;;;;;;;;5089317;28;20407;-84
2021/05/28 05:59:11;;;;;;;6.28;4.60;;;;;;;;;;5107376;28;20379;-85
2021/05/28 06:01:38;;;;;;;5.80;4.57;;;;;;;;;;5107280;28;20385;-84
2021/05/28 06:04:04;;;;;;;7.43;4.90;;;;;;;;;;5107974;28;20424;-85
2021/05/28 06:06:30;;;;;;;7.13;4.82;;;;;;;;;;5090043;27;20413;-87
2021/05/28 06:08:56;;;;;;;7.38;5.07;;;;;;;;;;5110496;27;20783;-86
2021/05/28 06:11:22;;;;;;;6.93;5.00;;;;;;;;;;5102223;27;21114;-86
2021/05/28 06:13:48;;;;;;;6.85;4.80;;;;;;;;;;5088908;28;20406;-84
2021/05/28 06:16:15;;;;;;;7.07;4.70;;;;;;;;;;5107794;28;20402;-84
2021/05/28 06:18:41;;;;;;;6.57;4.78;;;;;;;;;;5107352;28;20921;-84
2021/05/28 06:21:08;;;;;;;5.43;4.93;;;;;;;;;;5089093;28;20816;-84
2021/05/28 06:23:34;;;;;;;5.05;4.55;;;;;;;;;;5107296;28;20840;-84
2021/05/28 06:26:01;;;;;;;9.32;5.20;;;;;;;;;;5107021;28;20370;-84
2021/05/28 06:28:27;;;;;;;9.82;4.78;;;;;;;;;;5108188;28;20366;-82
2021/05/28 06:30:54;;;;;;;6.63;4.80;;;;;;;;;;5106119;28;20444;-84
2021/05/28 06:33:21;;;;;;;5.57;4.77;;;;;;;;;;5086991;28;20382;-83
2021/05/28 06:35:47;;;;;;;5.15;4.35;;;;;;;;;;5106194;28;20948;-84
2021/05/28 06:38:13;;;;;;;6.03;4.50;;;;;;;;;;5088422;28;20485;-84
2021/05/28 06:40:40;;;;;;;7.50;4.63;;;;;;;;;;5088612;28;20377;-85
2021/05/28 06:43:06;;;;;;;6.13;4.45;;;;;;;;;;5106678;28;20379;-86
2021/05/28 06:45:35;;;;;;;6.57;4.40;;;;;;;;;;5106914;28;20725;-84
2021/05/28 06:48:01;;;;;;;6.80;4.80;;;;;;;;;;5088013;28;20371;-83
2021/05/28 06:50:31;;;;;;;6.33;4.47;;;;;;;;;;5106647;28;20765;-88
2021/05/28 06:52:57;;;;;;;4.82;3.78;;;;;;;;;;5087744;28;20389;-86
2021/05/28 06:55:24;;;;;;;5.70;3.90;;;;;;;;;;5107187;28;20367;-88
2021/05/28 06:57:50;;;;;;;4.47;4.07;;;;;;;;;;5107762;28;20402;-85
2021/05/28 07:00:16;;;;;;;5.05;4.13;;;;;;;;;;5089423;28;20375;-83
2021/05/28 07:02:42;;;;;;;4.88;3.70;;;;;;;;;;5106252;28;20459;-84
2021/05/28 07:05:08;;;;;;;5.95;3.80;;;;;;;;;;5088502;28;20371;-82
2021/05/28 07:07:34;;;;;;;8.20;3.72;;;;;;;;;;5107146;28;21664;-87
2021/05/28 07:10:00;;;;;;;5.13;4.07;;;;;;;;;;5091404;28;20410;-83
2021/05/28 07:12:26;;;;;;;6.60;3.67;;;;;;;;;;5106861;28;20355;-82
2021/05/28 07:14:52;;;;;;;7.05;4.10;;;;;;;;;;5107735;28;20898;-82
2021/05/28 07:17:19;;;;;;;4.95;3.83;;;;;;;;;;5086831;28;20400;-84
2021/05/28 07:19:47;;;;;;;6.22;4.22;;;;;;;;;;5106479;28;20429;-84
2021/05/28 07:22:13;;;;;;;6.87;4.33;;;;;;;;;;5106921;28;20382;-82
2021/05/28 07:24:39;;;;;;;5.50;4.07;;;;;;;;;;5092819;28;20427;-86
2021/05/28 07:27:05;;;;;;;5.73;4.23;;;;;;;;;;5114572;28;20398;-83
2021/05/28 07:29:31;;;;;;;5.23;3.70;;;;;;;;;;5096497;28;20464;-84
2021/05/28 07:31:57;;;;;;;4.77;3.60;;;;;;;;;;5079371;28;20481;-82
2021/05/28 07:34:23;;;;;;;5.33;3.53;;;;;;;;;;5109466;28;20379;-84
2021/05/28 07:36:49;;;;;;;4.85;3.67;;;;;;;;;;5109654;28;20798;-84
2021/05/28 07:39:16;;;;;;;7.13;3.70;;;;;;;;;;5102118;28;20471;-83
2021/05/28 07:41:42;;;;;;;5.68;3.42;;;;;;;;;;5092331;28;20418;-85
2021/05/28 07:44:08;;;;;;;3.80;3.25;;;;;;;;;;5082541;28;20927;-82
2021/05/28 07:46:40;;;;;;;4.97;3.20;;;;;;;;;;5097134;28;20386;-80
2021/05/28 07:49:06;;;;;;;6.63;3.70;;;;;;;;;;5074060;28;20914;-82
2021/05/28 07:51:32;;;;;;;4.50;3.57;;;;;;;;;;5110798;28;20433;-83
2021/05/28 07:53:58;;;;;;;5.67;3.40;;;;;;;;;;5108270;28;20402;-84
2021/05/28 07:56:24;;;;;;;5.10;3.57;;;;;;;;;;5083679;28;20446;-82
2021/05/28 07:58:50;;;;;;;4.63;3.10;;;;;;;;;;5106884;28;20394;-87
2021/05/28 08:01:16;;;;;;;4.10;3.00;;;;;;;;;;5088121;28;21006;-85
2021/05/28 08:03:43;;;;;;;4.13;3.00;;;;;;;;;;5109365;27;20410;-86
2021/05/28 08:06:09;;;;;;;3.53;3.00;;;;;;;;;;5111142;28;20928;-85
2021/05/28 08:08:35;;;;;;;3.03;2.50;;;;;;;;;;5093637;28;20382;-92
2021/05/28 08:11:01;;;;;;;2.67;2.27;;;;;;;;;;5111455;28;20368;-88
2021/05/28 08:13:27;;;;;;;6.80;2.80;;;;;;;;;;5092553;28;20491;-83
2021/05/28 08:15:56;;;;;;;5.10;2.95;;;;;;;;;;5108077;28;20371;-85
2021/05/28 08:18:22;;;;;;;3.50;3.03;;;;;;;;;;5110095;28;20379;-86
2021/05/28 08:20:48;;;;;;;5.22;2.70;;;;;;;;;;5091703;28;20394;-85
2021/05/28 08:23:14;;;;;;;4.90;2.53;;;;;;;;;;5108705;28;20371;-90
2021/05/28 08:25:41;;;;;;;2.92;2.22;;;;;;;;;;5089408;28;20373;-86
2021/05/28 08:28:07;;;;;;;3.72;2.22;;;;;;;;;;5109377;28;20379;-85
2021/05/28 08:30:33;;;;;;;3.58;2.28;;;;;;;;;;5092405;28;20370;-85
2021/05/28 08:32:59;;;;;;;4.03;2.80;;;;;;;;;;5110141;28;20417;-86
2021/05/28 08:35:25;;;;;;;4.68;2.72;;;;;;;;;;5092635;28;20374;-85
2021/05/28 08:37:51;;;;;;;3.45;2.60;;;;;;;;;;5089613;28;20398;-86
2021/05/28 08:40:18;;;;;;;4.40;2.25;;;;;;;;;;5108924;28;20374;-84
2021/05/28 08:42:44;;;;;;;6.07;2.47;;;;;;;;;;5110755;28;20377;-85
2021/05/28 08:45:10;;;;;;;3.60;2.40;;;;;;;;;;5092272;28;20363;-88
2021/05/28 08:47:39;;;;;;;5.05;2.30;;;;;;;;;;5107214;28;20375;-88
2021/05/28 08:50:07;;;;;;;3.97;2.38;;;;;;;;;;5085564;28;20382;-87
2021/05/28 08:52:33;;;;;;;2.78;2.20;;;;;;;;;;5110734;28;20367;-86
2021/05/28 08:54:59;;;;;;;2.40;2.05;;;;;;;;;;5089180;28;20478;-83
2021/05/28 08:57:26;;;;;;;3.88;2.20;;;;;;;;;;5109299;28;20955;-86
2021/05/28 08:59:52;;;;;;;2.30;2.07;;;;;;;;;;5091437;28;20393;-86
2021/05/28 09:02:40;;;;;;;3.20;2.42;;;;;;;;;;5107183;28;20383;-87
2021/05/28 09:05:07;;;;;;;2.42;1.95;;;;;;;;;;5109931;28;20383;-87
2021/05/28 09:07:33;;;;;;;3.50;2.10;;;;;;;;;;5107217;28;20433;-85
2021/05/28 09:09:59;;;;;;;2.97;2.00;;;;;;;;;;5110170;28;20378;-83
2021/05/28 09:12:28;;;;;;;5.57;2.08;;;;;;;;;;5109569;28;20374;-85
2021/05/28 09:14:54;;;;;;;2.90;2.00;;;;;;;;;;5109221;28;20371;-87
2021/05/28 09:17:21;;;;;;;3.25;2.00;;;;;;;;;;5090880;28;21013;-85
2021/05/28 09:19:57;;;;;;;3.63;1.83;;;;;;;;;;5106489;28;20466;-84
2021/05/28 09:22:32;;;;;;;2.25;1.80;;;;;;;;;;5090751;28;20561;-86
2021/05/28 09:24:58;;;;;;;2.53;1.60;;;;;;;;;;5106827;28;20398;-84
2021/05/28 09:27:27;;;;;;;4.10;1.75;;;;;;;;;;5105178;27;20394;-86
2021/05/28 09:29:58;;;;;;;2.80;1.50;;;;;;;;;;5089380;28;20487;-85
2021/05/28 09:32:25;;;;;;;1.70;1.60;;;;;;;;;;5107727;28;20383;-85
2021/05/28 09:34:51;;;;;;;2.60;1.48;;;;;;;;;;5109451;28;20449;-85
2021/05/28 09:37:17;;;;;;;3.07;1.50;;;;;;;;;;5109216;28;20407;-85
2021/05/28 09:39:43;;;;;;;3.73;1.70;;;;;;;;;;5108069;28;20371;-86
2021/05/28 09:42:09;;;;;;;2.50;1.60;;;;;;;;;;5110672;28;20381;-85
2021/05/28 09:44:35;;;;;;;1.98;1.50;;;;;;;;;;5092883;28;20864;-85
2021/05/28 09:47:02;;;;;;;1.88;1.70;;;;;;;;;;5110373;28;20363;-84
2021/05/28 09:49:30;;;;;;;3.05;1.60;;;;;;;;;;5091583;28;20457;-83
2021/05/28 09:52:05;;;;;;;3.70;1.70;;;;;;;;;;5109984;28;20355;-84
2021/05/28 09:54:31;;;;;;;3.10;1.70;;;;;;;;;;5105682;28;20433;-86
2021/05/28 09:56:57;;;;;;;2.30;1.85;;;;;;;;;;5089955;28;20407;-84
2021/05/28 09:59:23;;;;;;;1.70;1.60;;;;;;;;;;5108663;28;20935;-84
2021/05/28 10:01:57;;;;;;;1.80;1.70;;;;;;;;;;5089789;28;20799;-84
2021/05/28 10:04:23;;;;;;;2.75;1.83;;;;;;;;;;5109111;28;20371;-85
2021/05/28 10:06:49;;;;;;;3.42;1.63;;;;;;;;;;5108639;28;20490;-86
2021/05/28 10:09:16;;;;;;;1.75;1.55;;;;;;;;;;5088322;28;20383;-83
2021/05/28 10:11:42;;;;;;;2.30;1.42;;;;;;;;;;5106235;28;20413;-83
2021/05/28 10:14:08;;;;;;;2.70;1.40;;;;;;;;;;5105940;28;20749;-86
2021/05/28 10:16:35;;;;;;;3.17;1.40;;;;;;;;;;5089140;28;20928;-83
2021/05/28 10:19:01;;;;;;;1.90;1.30;;;;;;;;;;5089715;28;20477;-83
2021/05/28 10:21:27;;;;;;;2.13;1.57;;;;;;;;;;5090129;28;20474;-83
2021/05/28 10:23:54;;;;;;;2.13;1.45;;;;;;;;;;5089554;28;20381;-83
2021/05/28 10:26:25;;;;;;;2.50;1.50;;;;;;;;;;5107073;28;20733;-85
2021/05/28 10:28:51;;;;;;;2.67;1.40;;;;;;;;;;5110253;27;20370;-85
2021/05/28 10:31:17;;;;;;;3.67;1.60;;;;;;;;;;5110833;27;20369;-82
2021/05/28 10:33:48;;;;;;;2.67;1.38;;;;;;;;;;5119293;27;20428;-85
2021/05/28 10:36:35;;;;;;;2.40;1.50;;;;;;;;;;5087844;28;20370;-83
2021/05/28 10:39:06;;;;;;;3.10;1.63;;;;;;;;;;5090548;28;20407;-87
2021/05/28 10:41:33;;;;;;;1.65;1.50;;;;;;;;;;5109307;28;20433;-85
2021/05/28 10:44:04;;;;;;;2.38;1.30;;;;;;;;;;5091104;28;21080;-84
2021/05/28 10:46:30;;;;;;;2.80;1.60;;;;;;;;;;5108622;28;20367;-84
2021/05/28 10:48:56;;;;;;;3.05;1.50;;;;;;;;;;5109507;28;20366;-92
2021/05/28 10:51:25;;;;;;;5.03;1.92;;;;;;;;;;5092143;28;20537;-91
2021/05/28 10:53:54;;;;;;;5.78;2.88;;;;;;;;;;5088976;28;20498;-84
2021/05/28 10:56:22;;;;;;;1.65;1.50;;;;;;;;;;5107461;28;20407;-85
2021/05/28 10:58:50;;;;;;;2.47;1.50;;;;;;;;;;5103527;28;20367;-82
2021/05/28 11:01:34;;;;;;;3.65;1.83;;;;;;;;;;5105642;28;20372;-83
2021/05/28 11:04:04;;;;;;;2.00;1.50;;;;;;;;;;5106980;28;20398;-85
2021/05/28 11:06:31;;;;;;;1.40;1.30;;;;;;;;;;5080647;28;20393;-83
2021/05/28 11:09:05;;;;;;;1.57;1.43;;;;;;;;;;5105499;28;21087;-83
2021/05/28 11:11:37;;;;;;;2.00;1.70;;;;;;;;;;5086252;28;20375;-83
2021/05/28 11:14:08;;;;;;;1.60;1.50;;;;;;;;;;5102200;28;20383;-83
2021/05/28 11:16:49;;;;;;;1.75;1.65;;;;;;;;;;5109788;28;20451;-82
2021/05/28 11:19:25;;;;;;;2.20;1.60;;;;;;;;;;5087440;28;20470;-86
2021/05/28 11:21:57;;;;;;;1.52;1.42;;;;;;;;;;5085746;28;20744;-85
2021/05/28 11:24:42;;;;;;;1.95;1.50;;;;;;;;;;5084661;28;20390;-83
2021/05/28 11:27:15;;;;;;;3.00;1.80;;;;;;;;;;5106218;28;20370;-83
2021/05/28 11:29:42;;;;;;;2.33;1.80;;;;;;;;;;5105765;28;20371;-83
2021/05/28 11:32:28;;;;;;;2.30;1.52;;;;;;;;;;5106115;28;20417;-84
2021/05/28 11:35:12;;;;;;;1.40;1.30;;;;;;;;;;5086635;28;20465;-84
2021/05/28 11:37:52;;;;;;;2.25;1.70;;;;;;;;;;5106559;28;20406;-86
2021/05/28 11:40:25;;;;;;;2.17;1.70;;;;;;;;;;5108223;28;20401;-85
2021/05/28 11:42:52;;;;;;;3.00;1.90;;;;;;;;;;5111303;28;20844;-83
2021/05/28 11:45:19;;;;;;;1.90;1.60;;;;;;;;;;5112523;28;20378;-84
2021/05/28 11:47:46;;;;;;;4.00;1.90;;;;;;;;;;5111825;28;20366;-84
2021/05/28 11:50:14;;;;;;;3.22;1.83;;;;;;;;;;5110970;28;20378;-84
2021/05/28 11:52:40;;;;;;;2.72;1.73;;;;;;;;;;5093493;28;20383;-88
2021/05/28 11:55:11;;;;;;;3.10;1.80;;;;;;;;;;5091863;28;20451;-86
2021/05/28 11:57:38;;;;;;;2.67;1.58;;;;;;;;;;5106773;27;20406;-82
2021/05/28 12:00:06;;;;;;;2.33;1.80;;;;;;;;;;5111542;28;20449;-85
2021/05/28 12:02:43;;;;;;;3.10;1.67;;;;;;;;;;5110320;28;20359;-84
2021/05/28 12:05:16;;;;;;;2.22;1.60;;;;;;;;;;5086244;28;20470;-84
2021/05/28 12:07:42;;;;;;;2.38;1.67;;;;;;;;;;5109804;28;20465;-83
2021/05/28 12:10:09;;;;;;;3.05;1.60;;;;;;;;;;5110509;28;20420;-85
2021/05/28 12:12:56;;;;;;;2.22;1.60;;;;;;;;;;5110705;28;20375;-83
2021/05/28 12:15:24;;;;;;;5.93;1.60;;;;;;;;;;5111298;28;20366;-83
2021/05/28 12:17:50;;;;;;;4.38;1.90;;;18.20;94.00;;;;;;5110519;28;20751;-81
2021/05/28 12:20:24;;;;;;;4.22;1.45;;;;;;;;;;5092049;28;20436;-87
2021/05/28 12:23:15;;;;;;;4.18;1.67;;;17.60;94.40;;;;;;5093901;28;20440;-83
2021/05/28 12:25:42;;;;;;;2.55;1.40;;;17.30;95.00;;;;;;5112305;28;20371;-83
2021/05/28 12:28:11;;;;;;;1.20;1.10;;;17.00;94.40;;;;;;5112352;28;20959;-82
2021/05/28 12:30:37;;;;;;;3.17;1.40;;;17.10;95.20;;;;;;5111847;28;20416;-82
2021/05/28 12:33:03;;;;;;;1.70;1.20;;;;;;;;;;5112617;27;20383;-81
2021/05/28 12:35:29;;;;;;;1.17;1.07;;;17.10;95.90;;;;;;5101456;27;20441;-85
2021/05/28 12:38:10;;;;;;;1.60;1.40;;;16.90;96.40;;;;;;5089188;28;20454;-85
2021/05/28 12:40:38;;;;;;;1.42;1.33;;;16.80;96.40;;;;;;5092996;28;20383;-83
2021/05/28 12:43:06;;;;;;;1.55;1.30;;;16.60;96.80;;;;;;5111608;28;20382;-85
2021/05/28 12:45:43;;;;;;;1.63;1.30;;;16.60;96.70;;;;;;5094365;28;20382;-85
2021/05/28 12:48:11;;;;;;;1.63;1.33;;;16.80;97.10;;;;;;5112691;28;21213;-81
2021/05/28 12:50:42;;;;;;;1.55;1.25;;;17.00;96.00;;;;;;5092357;28;20390;-84
2021/05/28 12:53:14;;;;;;;1.40;1.23;;;17.00;97.10;;;;;;5110493;28;20372;-84
2021/05/28 12:55:48;;;;;;;2.22;1.23;;;16.90;97.30;;;;;;5088490;28;20416;-86
2021/05/28 12:58:29;;;;;;;2.17;1.27;;;17.10;96.10;;;;;;5092636;28;20472;-81
2021/05/28 13:00:57;;;;;;;2.30;1.20;;;17.00;95.90;;;;;;5111267;28;20460;-86
2021/05/28 13:03:39;;;;;;;1.80;1.58;;;17.10;96.80;;;;;;5111302;28;20389;-83
2021/05/28 13:06:26;;;;;;;2.07;1.87;;;17.20;94.90;;;;;;5111210;28;20472;-81
2021/05/28 13:08:53;;;;;;;1.77;1.50;;;17.20;95.20;;;;;;5111126;28;20378;-85
2021/05/28 13:11:20;;;;;;;3.95;1.40;;;17.40;95.40;;;;;;5110846;28;20363;-86
2021/05/28 13:13:50;;;;;;;1.40;1.30;;;17.50;93.90;;;;;;5109450;28;20473;-81
2021/05/28 13:16:24;;;;;;;1.63;1.50;;;17.60;94.40;;;;;;5104649;27;20387;-83
2021/05/28 13:18:51;;;;;;;2.60;1.65;;;17.40;94.60;;;;;;5072886;28;20420;-84
2021/05/28 13:21:25;;;;;;;3.08;1.80;;;17.30;95.10;;;;;;5110104;27;20398;-83
2021/05/28 13:23:50;;;;;;;2.60;1.60;;;17.30;95.30;;;;;;5109907;28;20370;-83
2021/05/28 13:26:17;;;;;;;3.60;1.80;;;17.40;95.90;;;;;;5110764;27;20478;-84
2021/05/28 13:28:46;;;;;;;2.75;1.70;;;17.40;96.20;;;;;;5090543;28;20463;-86
2021/05/28 13:31:15;;;;;;;2.25;1.50;;;17.40;96.90;;;;;;5107603;27;20386;-82
2021/05/28 13:33:42;;;;;;;2.28;1.77;;;17.30;96.50;;;;;;5103136;28;20398;-86
2021/05/28 13:36:17;;;;;;;2.10;1.60;;;17.10;99.70;;;;;;5090510;28;20382;-83
2021/05/28 13:38:45;;;;;;;3.85;1.95;;;17.10;99.90;;;;;;5081564;28;20474;-81
2021/05/28 13:41:19;;;;;;;6.53;2.30;;;;;;;;;;5083925;28;20411;-83
2021/05/28 13:43:46;;;;;;;2.60;2.10;;;;;;;;;;5090366;28;20406;-83
2021/05/28 13:46:12;;;;;;;4.07;2.20;;;;;;;;;;5091263;28;20887;-83
2021/05/28 13:48:39;;;;;;;3.00;1.97;;;;;;;;;;5110173;28;20375;-82
2021/05/28 13:51:06;;;;;;;2.97;2.15;;;;;;;;;;5082204;28;20413;-86
2021/05/28 13:53:32;;;;;;;3.03;2.42;;;;;;;;;;5105576;28;20380;-86
2021/05/28 13:55:58;;;;;;;2.05;1.80;;;;;;;;;;5090554;28;20375;-85
2021/05/28 13:58:24;;;;;;;2.30;2.00;;;;;;;;;;5089685;28;20411;-84
2021/05/28 14:00:51;;;;;;;1.97;1.80;;;;;;;;;;5109319;28;20371;-83
2021/05/28 14:03:18;;;;;;;3.30;1.90;;;;;;;;;;5102183;28;20379;-85
2021/05/28 14:05:44;;;;;;;1.60;1.50;;;;;;;;;;5088786;28;20435;-84
2021/05/28 14:08:14;;;;;;;1.90;1.60;;;;;;;;;;5090193;28;20387;-83
2021/05/28 14:10:40;;;;;;;1.88;1.63;;;;;;;;;;5071305;28;20372;-82
2021/05/28 14:13:06;;;;;;;1.80;1.70;;;;;;;;;;5079388;28;20415;-81
2021/05/28 14:15:38;;;;;;;1.85;1.65;;;;;;;;;;5109664;27;20463;-82
2021/05/28 14:18:07;;;;;;;2.65;1.75;;;;;;;;;;5089759;28;20426;-83
2021/05/28 14:20:44;;;;;;;3.38;1.80;;;;;;;;;;5087878;28;20394;-82
2021/05/28 14:23:12;;;;;;;2.30;1.70;;;;;;;;;;5089582;28;20425;-83
2021/05/28 14:25:41;;;;;;;2.55;1.77;;;;;;;;;;5088191;28;20458;-86
2021/05/28 14:28:07;;;;;;;2.65;1.60;;;;;;;;;;5105658;28;20366;-82
2021/05/28 14:30:34;;;;;;;1.80;1.67;;;;;;;;;;5106559;28;20375;-84
2021/05/28 14:33:01;;;;;;;2.53;1.48;;;;;;;;;;5106909;28;20379;-84